OAKN

Details ICAO OAKN (KDH)
Name KANDAHAR
Region Afghanistan
Timezone Asia/Kabul (UTC+4.5)
Plans Departing 32
Arriving 38
Stats Elevation 3,337 ft / 1,017 m (AMSL)
Location 31.505754° 65.847824°
Runways 1
Magnetic Variation 2.599° E
Sunrise 2018-05-24 00:36:56 UTC / 2018-05-24 05:06:56 Local
Sunset 2018-05-24 14:32:47 UTC / 2018-05-24 19:02:47 Local
Advertisement - Login to hide

Runways

ID Width Length Bearing (true) Bearing (mag) Surface Threshold Offset Overrun Length
05 148 ft / 45 m 10,531 ft / 3,210 m 55.15° 52.55° Asphalt 0 ft / 0 m 0 ft / 0 m
23 148 ft / 45 m 10,531 ft / 3,210 m 235.17° 232.57° Asphalt 2,001 ft / 610 m 0 ft / 0 m

Map

Weather


0- 5 10 15 20 25 30 35+ Temperature / ° C

Clouds and Precipitation
Forecast for 2018-05-23 18:00 UTC. Updated 6 hours ago

Ground ~20,000 ft ~40,000 ft Winds

METAR

OAKN 232155Z 00000KT 9999 CLR 21/M08 A2984 RMK AO2A SLP053 Q1010 PA3379 DA4897

TAF

TAF TAF OAKN 231500Z 2315/2421 VRB03KT 9999 SKC QNH2983INS BECMG 2406/2407 23012KT 9999 SKC QNH2992INS TX34/2410Z TN18/2401Z

Frequencies

Clearance 119.75 MHz CLNC DEL
Tower 125.50 MHz TWR
Approach 123.70 MHz APP
Approach 122.60 MHz APP
Ground 133.00 MHz GND
Approach 122.60 MHz GCA
Approach 120.80 MHz APP
Warning: Do not use this data for real-world aviation or navigation. No guarantee of current accuracy is given.